sensor_id;sensor_type;location;lat;lon;timestamp;pressure;altitude;pressure_sealevel;temperature;humidity
49311;BME280;35177;45.900;5.946;2023-03-15T00:00:06;97592.38;;;1.96;100.00
49311;BME280;35177;45.900;5.946;2023-03-15T00:02:35;97601.41;;;1.97;100.00
49311;BME280;35177;45.900;5.946;2023-03-15T00:05:01;97605.03;;;1.75;100.00
49311;BME280;35177;45.900;5.946;2023-03-15T00:07:27;97613.13;;;2.19;100.00
49311;BME280;35177;45.900;5.946;2023-03-15T00:09:52;97604.75;;;2.04;100.00
49311;BME280;35177;45.900;5.946;2023-03-15T00:12:18;97612.84;;;1.39;100.00
49311;BME280;35177;45.900;5.946;2023-03-15T00:14:43;97614.94;;;1.81;100.00
49311;BME280;35177;45.900;5.946;2023-03-15T00:17:09;97614.53;;;1.95;100.00
49311;BME280;35177;45.900;5.946;2023-03-15T00:19:36;97608.06;;;2.06;100.00
49311;BME280;35177;45.900;5.946;2023-03-15T00:22:01;97607.56;;;2.09;100.00
49311;BME280;35177;45.900;5.946;2023-03-15T00:24:27;97608.66;;;2.08;100.00
49311;BME280;35177;45.900;5.946;2023-03-15T00:26:52;97612.78;;;2.11;100.00
49311;BME280;35177;45.900;5.946;2023-03-15T00:29:18;97620.59;;;2.29;100.00
49311;BME280;35177;45.900;5.946;2023-03-15T00:31:43;97620.56;;;2.24;100.00
49311;BME280;35177;45.900;5.946;2023-03-15T00:34:08;97614.59;;;2.00;100.00
49311;BME280;35177;45.900;5.946;2023-03-15T00:36:38;97621.25;;;1.82;100.00
49311;BME280;35177;45.900;5.946;2023-03-15T00:39:08;97625.63;;;2.10;100.00
49311;BME280;35177;45.900;5.946;2023-03-15T00:41:33;97626.09;;;2.02;100.00
49311;BME280;35177;45.900;5.946;2023-03-15T00:43:59;97621.28;;;2.14;100.00
49311;BME280;35177;45.900;5.946;2023-03-15T00:46:24;97626.34;;;2.00;100.00
49311;BME280;35177;45.900;5.946;2023-03-15T00:48:50;97635.59;;;1.94;100.00
49311;BME280;35177;45.900;5.946;2023-03-15T00:51:19;97636.34;;;1.62;100.00
49311;BME280;35177;45.900;5.946;2023-03-15T00:53:46;97650.47;;;1.76;100.00
49311;BME280;35177;45.900;5.946;2023-03-15T00:56:15;97649.75;;;1.86;100.00
49311;BME280;35177;45.900;5.946;2023-03-15T00:58:41;97647.13;;;1.96;100.00
49311;BME280;35177;45.900;5.946;2023-03-15T01:01:09;97657.06;;;1.80;100.00
49311;BME280;35177;45.900;5.946;2023-03-15T01:03:35;97659.84;;;1.58;100.00
49311;BME280;35177;45.900;5.946;2023-03-15T01:06:21;97652.91;;;1.50;100.00
49311;BME280;35177;45.900;5.946;2023-03-15T01:08:47;97655.19;;;1.58;100.00
49311;BME280;35177;45.900;5.946;2023-03-15T01:11:17;97654.16;;;1.42;100.00
49311;BME280;35177;45.900;5.946;2023-03-15T01:13:43;97644.72;;;1.28;100.00
49311;BME280;35177;45.900;5.946;2023-03-15T01:16:11;97652.22;;;1.38;100.00
49311;BME280;35177;45.900;5.946;2023-03-15T01:18:36;97641.72;;;1.30;100.00
49311;BME280;35177;45.900;5.946;2023-03-15T01:21:05;97639.31;;;1.11;100.00
49311;BME280;35177;45.900;5.946;2023-03-15T01:23:31;97634.59;;;1.28;100.00
49311;BME280;35177;45.900;5.946;2023-03-15T01:26:02;97635.19;;;1.31;100.00
49311;BME280;35177;45.900;5.946;2023-03-15T01:28:28;97634.72;;;1.39;100.00
49311;BME280;35177;45.900;5.946;2023-03-15T01:30:54;97642.22;;;1.26;100.00
49311;BME280;35177;45.900;5.946;2023-03-15T01:33:20;97647.94;;;1.47;100.00
49311;BME280;35177;45.900;5.946;2023-03-15T01:35:46;97658.53;;;0.99;100.00
49311;BME280;35177;45.900;5.946;2023-03-15T01:38:12;97652.59;;;1.47;100.00
49311;BME280;35177;45.900;5.946;2023-03-15T01:40:42;97656.72;;;1.49;100.00
49311;BME280;35177;45.900;5.946;2023-03-15T01:43:17;97654.31;;;1.31;100.00
49311;BME280;35177;45.900;5.946;2023-03-15T01:48:38;97656.16;;;1.25;100.00
49311;BME280;35177;45.900;5.946;2023-03-15T01:51:23;97654.94;;;1.16;100.00
49311;BME280;35177;45.900;5.946;2023-03-15T01:54:01;97656.25;;;1.13;100.00
49311;BME280;35177;45.900;5.946;2023-03-15T01:56:29;97649.47;;;0.93;100.00
49311;BME280;35177;45.900;5.946;2023-03-15T01:58:58;97654.19;;;0.81;100.00
49311;BME280;35177;45.900;5.946;2023-03-15T02:01:25;97650.50;;;0.70;100.00
49311;BME280;35177;45.900;5.946;2023-03-15T02:04:01;97652.78;;;0.61;100.00
49311;BME280;35177;45.900;5.946;2023-03-15T02:06:28;97662.97;;;0.66;100.00
49311;BME280;35177;45.900;5.946;2023-03-15T02:08:56;97654.28;;;0.86;100.00
49311;BME280;35177;45.900;5.946;2023-03-15T02:11:25;97654.59;;;0.90;100.00
49311;BME280;35177;45.900;5.946;2023-03-15T02:13:53;97654.03;;;0.71;100.00
49311;BME280;35177;45.900;5.946;2023-03-15T02:16:19;97655.75;;;0.77;100.00
49311;BME280;35177;45.900;5.946;2023-03-15T02:18:46;97659.25;;;0.72;100.00
49311;BME280;35177;45.900;5.946;2023-03-15T02:24:14;97655.03;;;0.64;100.00
49311;BME280;35177;45.900;5.946;2023-03-15T02:26:46;97653.16;;;0.31;100.00
49311;BME280;35177;45.900;5.946;2023-03-15T02:29:12;97651.16;;;0.60;100.00
49311;BME280;35177;45.900;5.946;2023-03-15T02:31:39;97650.16;;;0.67;100.00
49311;BME280;35177;45.900;5.946;2023-03-15T02:34:05;97649.25;;;0.61;100.00
49311;BME280;35177;45.900;5.946;2023-03-15T02:36:33;97641.25;;;0.54;100.00
49311;BME280;35177;45.900;5.946;2023-03-15T02:38:59;97642.13;;;0.60;100.00
49311;BME280;35177;45.900;5.946;2023-03-15T02:41:36;97637.66;;;0.71;100.00
49311;BME280;35177;45.900;5.946;2023-03-15T02:46:32;97644.09;;;0.64;100.00
49311;BME280;35177;45.900;5.946;2023-03-15T02:48:59;97650.25;;;0.55;100.00
49311;BME280;35177;45.900;5.946;2023-03-15T02:51:27;97648.19;;;0.45;100.00
49311;BME280;35177;45.900;5.946;2023-03-15T02:53:53;97651.06;;;0.55;100.00
49311;BME280;35177;45.900;5.946;2023-03-15T02:56:18;97656.78;;;0.54;100.00
49311;BME280;35177;45.900;5.946;2023-03-15T02:58:44;97665.69;;;0.66;100.00
49311;BME280;35177;45.900;5.946;2023-03-15T03:01:11;97652.97;;;0.72;100.00
49311;BME280;35177;45.900;5.946;2023-03-15T03:03:39;97660.41;;;0.59;100.00
49311;BME280;35177;45.900;5.946;2023-03-15T03:06:04;97660.09;;;0.39;100.00
49311;BME280;35177;45.900;5.946;2023-03-15T03:08:30;97666.59;;;0.21;100.00
49311;BME280;35177;45.900;5.946;2023-03-15T03:10:55;97666.22;;;0.29;100.00
49311;BME280;35177;45.900;5.946;2023-03-15T03:13:21;97668.53;;;0.37;100.00
49311;BME280;35177;45.900;5.946;2023-03-15T03:15:48;97674.00;;;0.37;100.00
49311;BME280;35177;45.900;5.946;2023-03-15T03:18:14;97674.78;;;0.21;100.00
49311;BME280;35177;45.900;5.946;2023-03-15T03:20:39;97669.16;;;0.10;100.00
49311;BME280;35177;45.900;5.946;2023-03-15T03:23:05;97669.16;;;0.10;100.00
49311;BME280;35177;45.900;5.946;2023-03-15T03:25:31;97673.63;;;0.17;100.00
49311;BME280;35177;45.900;5.946;2023-03-15T03:27:57;97681.91;;;0.22;100.00
49311;BME280;35177;45.900;5.946;2023-03-15T03:30:23;97677.84;;;0.24;100.00
49311;BME280;35177;45.900;5.946;2023-03-15T03:32:49;97691.69;;;0.35;100.00
49311;BME280;35177;45.900;5.946;2023-03-15T03:35:15;97691.53;;;0.41;100.00
49311;BME280;35177;45.900;5.946;2023-03-15T03:37:41;97692.25;;;0.37;100.00
49311;BME280;35177;45.900;5.946;2023-03-15T03:40:07;97696.47;;;0.27;100.00
49311;BME280;35177;45.900;5.946;2023-03-15T03:42:34;97709.44;;;-0.26;100.00
49311;BME280;35177;45.900;5.946;2023-03-15T03:44:59;97715.66;;;-0.13;100.00
49311;BME280;35177;45.900;5.946;2023-03-15T03:47:25;97712.31;;;0.13;100.00
49311;BME280;35177;45.900;5.946;2023-03-15T03:49:50;97713.63;;;0.11;100.00
49311;BME280;35177;45.900;5.946;2023-03-15T03:52:16;97701.81;;;0.05;100.00
49311;BME280;35177;45.900;5.946;2023-03-15T03:54:41;97704.31;;;0.07;100.00
49311;BME280;35177;45.900;5.946;2023-03-15T03:57:08;97712.16;;;0.03;100.00
49311;BME280;35177;45.900;5.946;2023-03-15T03:59:34;97708.03;;;-0.81;100.00
49311;BME280;35177;45.900;5.946;2023-03-15T04:01:59;97716.09;;;-0.98;100.00
49311;BME280;35177;45.900;5.946;2023-03-15T04:04:25;97715.53;;;-0.59;100.00
49311;BME280;35177;45.900;5.946;2023-03-15T04:06:50;97712.47;;;-0.63;100.00
49311;BME280;35177;45.900;5.946;2023-03-15T04:09:16;97711.50;;;-0.45;100.00
49311;BME280;35177;45.900;5.946;2023-03-15T04:11:42;97711.31;;;-0.26;100.00
49311;BME280;35177;45.900;5.946;2023-03-15T04:14:09;97708.47;;;-0.20;100.00
49311;BME280;35177;45.900;5.946;2023-03-15T04:16:35;97703.00;;;-0.20;100.00
49311;BME280;35177;45.900;5.946;2023-03-15T04:19:01;97702.03;;;-0.54;100.00
49311;BME280;35177;45.900;5.946;2023-03-15T04:21:27;97710.38;;;-1.08;100.00
49311;BME280;35177;45.900;5.946;2023-03-15T04:24:00;97704.59;;;-1.00;100.00
49311;BME280;35177;45.900;5.946;2023-03-15T04:26:26;97708.94;;;-0.63;100.00
49311;BME280;35177;45.900;5.946;2023-03-15T04:28:53;97721.09;;;-0.42;100.00
49311;BME280;35177;45.900;5.946;2023-03-15T04:31:19;97714.41;;;-0.35;100.00
49311;BME280;35177;45.900;5.946;2023-03-15T04:33:44;97710.41;;;-0.85;100.00
49311;BME280;35177;45.900;5.946;2023-03-15T04:36:10;97717.00;;;-0.69;100.00
49311;BME280;35177;45.900;5.946;2023-03-15T04:38:43;97716.94;;;-0.45;100.00
49311;BME280;35177;45.900;5.946;2023-03-15T04:41:11;97714.03;;;-0.55;100.00
49311;BME280;35177;45.900;5.946;2023-03-15T04:43:36;97709.72;;;-0.51;100.00
49311;BME280;35177;45.900;5.946;2023-03-15T04:46:02;97710.53;;;-0.51;100.00
49311;BME280;35177;45.900;5.946;2023-03-15T04:48:27;97707.53;;;-0.37;100.00
49311;BME280;35177;45.900;5.946;2023-03-15T04:50:53;97711.97;;;-0.48;100.00
49311;BME280;35177;45.900;5.946;2023-03-15T04:53:18;97712.13;;;-0.67;100.00
49311;BME280;35177;45.900;5.946;2023-03-15T04:55:44;97709.72;;;-0.39;100.00
49311;BME280;35177;45.900;5.946;2023-03-15T04:58:09;97717.63;;;-0.38;100.00
49311;BME280;35177;45.900;5.946;2023-03-15T05:00:34;97711.66;;;-0.63;100.00
49311;BME280;35177;45.900;5.946;2023-03-15T05:03:00;97717.22;;;-0.58;100.00
49311;BME280;35177;45.900;5.946;2023-03-15T05:05:25;97716.25;;;-0.52;100.00
49311;BME280;35177;45.900;5.946;2023-03-15T05:07:52;97718.81;;;-0.34;100.00
49311;BME280;35177;45.900;5.946;2023-03-15T05:10:18;97731.38;;;-0.33;100.00
49311;BME280;35177;45.900;5.946;2023-03-15T05:12:43;97741.06;;;-0.25;100.00
49311;BME280;35177;45.900;5.946;2023-03-15T05:15:09;97734.34;;;-0.34;100.00
49311;BME280;35177;45.900;5.946;2023-03-15T05:17:35;97743.94;;;-0.31;100.00
49311;BME280;35177;45.900;5.946;2023-03-15T05:20:00;97745.50;;;-0.36;100.00
49311;BME280;35177;45.900;5.946;2023-03-15T05:22:26;97738.16;;;-0.47;100.00
49311;BME280;35177;45.900;5.946;2023-03-15T05:24:52;97734.97;;;-0.56;100.00
49311;BME280;35177;45.900;5.946;2023-03-15T05:27:18;97738.41;;;-0.49;100.00
49311;BME280;35177;45.900;5.946;2023-03-15T05:29:44;97743.66;;;-0.59;100.00
49311;BME280;35177;45.900;5.946;2023-03-15T05:32:09;97744.81;;;-0.55;100.00
49311;BME280;35177;45.900;5.946;2023-03-15T05:34:35;97740.56;;;-0.62;100.00
49311;BME280;35177;45.900;5.946;2023-03-15T05:37:00;97740.56;;;-0.62;100.00
49311;BME280;35177;45.900;5.946;2023-03-15T05:39:26;97741.75;;;-0.58;100.00
49311;BME280;35177;45.900;5.946;2023-03-15T05:41:51;97742.22;;;-0.61;100.00
49311;BME280;35177;45.900;5.946;2023-03-15T05:44:17;97744.47;;;-0.58;100.00
49311;BME280;35177;45.900;5.946;2023-03-15T05:46:43;97744.03;;;-0.91;100.00
49311;BME280;35177;45.900;5.946;2023-03-15T05:49:08;97740.25;;;-1.02;100.00
49311;BME280;35177;45.900;5.946;2023-03-15T05:51:34;97751.38;;;-1.15;100.00
49311;BME280;35177;45.900;5.946;2023-03-15T05:53:59;97754.19;;;-0.86;100.00
49311;BME280;35177;45.900;5.946;2023-03-15T05:56:25;97752.44;;;-0.81;100.00
49311;BME280;35177;45.900;5.946;2023-03-15T05:58:50;97763.44;;;-0.75;100.00
49311;BME280;35177;45.900;5.946;2023-03-15T06:01:16;97759.75;;;-0.69;100.00
49311;BME280;35177;45.900;5.946;2023-03-15T06:03:42;97760.50;;;-0.86;100.00
49311;BME280;35177;45.900;5.946;2023-03-15T06:06:07;97766.06;;;-0.81;100.00
49311;BME280;35177;45.900;5.946;2023-03-15T06:08:33;97768.31;;;-0.89;100.00
49311;BME280;35177;45.900;5.946;2023-03-15T06:10:58;97764.84;;;-0.61;100.00
49311;BME280;35177;45.900;5.946;2023-03-15T06:13:24;97765.31;;;-0.52;100.00
49311;BME280;35177;45.900;5.946;2023-03-15T06:15:49;97774.09;;;-0.50;100.00
49311;BME280;35177;45.900;5.946;2023-03-15T06:18:15;97769.59;;;-0.56;100.00
49311;BME280;35177;45.900;5.946;2023-03-15T06:20:42;97767.94;;;-0.69;100.00
49311;BME280;35177;45.900;5.946;2023-03-15T06:23:08;97766.25;;;-0.46;100.00
49311;BME280;35177;45.900;5.946;2023-03-15T06:25:33;97774.34;;;-0.52;100.00
49311;BME280;35177;45.900;5.946;2023-03-15T06:27:59;97773.03;;;-0.49;100.00
49311;BME280;35177;45.900;5.946;2023-03-15T06:30:25;97773.63;;;-0.59;100.00
49311;BME280;35177;45.900;5.946;2023-03-15T06:32:51;97774.78;;;-0.43;100.00
49311;BME280;35177;45.900;5.946;2023-03-15T06:35:17;97780.28;;;-0.14;100.00
49311;BME280;35177;45.900;5.946;2023-03-15T06:37:43;97779.19;;;-0.01;100.00
49311;BME280;35177;45.900;5.946;2023-03-15T06:40:09;97787.72;;;0.03;100.00
49311;BME280;35177;45.900;5.946;2023-03-15T06:42:36;97787.22;;;0.06;100.00
49311;BME280;35177;45.900;5.946;2023-03-15T06:45:02;97795.72;;;0.21;100.00
49311;BME280;35177;45.900;5.946;2023-03-15T06:47:28;97797.19;;;0.41;100.00
49311;BME280;35177;45.900;5.946;2023-03-15T06:49:53;97796.56;;;0.68;100.00
49311;BME280;35177;45.900;5.946;2023-03-15T06:52:19;97786.47;;;0.85;100.00
49311;BME280;35177;45.900;5.946;2023-03-15T06:54:44;97794.31;;;0.64;100.00
49311;BME280;35177;45.900;5.946;2023-03-15T06:57:10;97790.75;;;0.81;100.00
49311;BME280;35177;45.900;5.946;2023-03-15T06:59:35;97798.84;;;0.59;100.00
49311;BME280;35177;45.900;5.946;2023-03-15T07:02:01;97808.53;;;0.50;100.00
49311;BME280;35177;45.900;5.946;2023-03-15T07:04:27;97811.72;;;0.75;100.00
49311;BME280;35177;45.900;5.946;2023-03-15T07:06:52;97809.41;;;1.01;100.00
49311;BME280;35177;45.900;5.946;2023-03-15T07:09:18;97808.75;;;1.28;100.00
49311;BME280;35177;45.900;5.946;2023-03-15T07:11:44;97801.75;;;2.21;100.00
49311;BME280;35177;45.900;5.946;2023-03-15T07:14:09;97797.28;;;2.37;100.00
49311;BME280;35177;45.900;5.946;2023-03-15T07:16:35;97789.56;;;3.21;100.00
49311;BME280;35177;45.900;5.946;2023-03-15T07:19:01;97782.97;;;3.60;100.00
49311;BME280;35177;45.900;5.946;2023-03-15T07:21:26;97786.63;;;3.33;100.00
49311;BME280;35177;45.900;5.946;2023-03-15T07:23:52;97784.72;;;3.76;100.00
49311;BME280;35177;45.900;5.946;2023-03-15T07:26:18;97771.72;;;4.25;100.00
49311;BME280;35177;45.900;5.946;2023-03-15T07:28:44;97777.84;;;4.47;100.00
49311;BME280;35177;45.900;5.946;2023-03-15T07:31:10;97772.06;;;4.49;100.00
49311;BME280;35177;45.900;5.946;2023-03-15T07:33:36;97769.03;;;4.56;100.00
49311;BME280;35177;45.900;5.946;2023-03-15T07:36:03;97777.28;;;4.40;100.00
49311;BME280;35177;45.900;5.946;2023-03-15T07:38:30;97775.13;;;4.94;100.00
49311;BME280;35177;45.900;5.946;2023-03-15T07:40:56;97779.00;;;5.24;100.00
49311;BME280;35177;45.900;5.946;2023-03-15T07:43:22;97776.25;;;5.29;100.00
49311;BME280;35177;45.900;5.946;2023-03-15T07:45:48;97785.00;;;5.52;100.00
49311;BME280;35177;45.900;5.946;2023-03-15T07:48:15;97777.81;;;5.82;100.00
49311;BME280;35177;45.900;5.946;2023-03-15T07:50:41;97783.38;;;5.40;100.00
49311;BME280;35177;45.900;5.946;2023-03-15T07:53:06;97788.34;;;5.07;100.00
49311;BME280;35177;45.900;5.946;2023-03-15T07:55:33;97789.44;;;5.47;100.00
49311;BME280;35177;45.900;5.946;2023-03-15T07:57:59;97790.84;;;5.19;100.00
49311;BME280;35177;45.900;5.946;2023-03-15T08:00:25;97795.22;;;5.10;100.00
49311;BME280;35177;45.900;5.946;2023-03-15T08:02:50;97800.38;;;5.89;100.00
49311;BME280;35177;45.900;5.946;2023-03-15T08:05:16;97790.78;;;5.55;100.00
49311;BME280;35177;45.900;5.946;2023-03-15T08:07:52;97781.69;;;5.70;100.00
49311;BME280;35177;45.900;5.946;2023-03-15T08:10:17;97779.41;;;6.08;100.00
49311;BME280;35177;45.900;5.946;2023-03-15T08:12:43;97781.91;;;5.84;100.00
49311;BME280;35177;45.900;5.946;2023-03-15T08:15:13;97781.06;;;5.84;100.00
49311;BME280;35177;45.900;5.946;2023-03-15T08:17:40;97776.63;;;6.03;100.00
49311;BME280;35177;45.900;5.946;2023-03-15T08:20:06;97767.16;;;6.30;100.00
49311;BME280;35177;45.900;5.946;2023-03-15T08:22:36;97776.13;;;6.51;100.00
49311;BME280;35177;45.900;5.946;2023-03-15T08:25:03;97770.28;;;6.63;100.00
49311;BME280;35177;45.900;5.946;2023-03-15T08:27:28;97776.19;;;6.41;100.00
49311;BME280;35177;45.900;5.946;2023-03-15T08:29:54;97786.66;;;6.49;100.00
49311;BME280;35177;45.900;5.946;2023-03-15T08:32:19;97783.84;;;6.54;100.00
49311;BME280;35177;45.900;5.946;2023-03-15T08:34:46;97779.81;;;6.81;100.00
49311;BME280;35177;45.900;5.946;2023-03-15T08:37:12;97777.63;;;7.18;100.00
49311;BME280;35177;45.900;5.946;2023-03-15T08:39:38;97783.97;;;7.48;100.00
49311;BME280;35177;45.900;5.946;2023-03-15T08:42:04;97780.47;;;7.37;100.00
49311;BME280;35177;45.900;5.946;2023-03-15T08:44:30;97777.84;;;7.51;100.00
49311;BME280;35177;45.900;5.946;2023-03-15T08:46:55;97775.97;;;7.76;100.00
49311;BME280;35177;45.900;5.946;2023-03-15T08:49:21;97768.22;;;8.02;100.00
49311;BME280;35177;45.900;5.946;2023-03-15T08:51:47;97765.13;;;8.09;100.00
49311;BME280;35177;45.900;5.946;2023-03-15T08:54:12;97770.31;;;7.62;100.00
49311;BME280;35177;45.900;5.946;2023-03-15T08:56:39;97763.00;;;8.44;100.00
49311;BME280;35177;45.900;5.946;2023-03-15T08:59:06;97771.41;;;8.77;100.00
49311;BME280;35177;45.900;5.946;2023-03-15T09:01:32;97772.97;;;8.83;100.00
49311;BME280;35177;45.900;5.946;2023-03-15T09:03:57;97767.50;;;9.16;100.00
49311;BME280;35177;45.900;5.946;2023-03-15T09:06:23;97772.84;;;9.26;100.00
49311;BME280;35177;45.900;5.946;2023-03-15T09:08:48;97770.69;;;9.23;100.00
49311;BME280;35177;45.900;5.946;2023-03-15T09:11:14;97776.94;;;9.48;100.00
49311;BME280;35177;45.900;5.946;2023-03-15T09:13:39;97769.97;;;9.64;100.00
49311;BME280;35177;45.900;5.946;2023-03-15T09:16:05;97773.84;;;9.49;100.00
49311;BME280;35177;45.900;5.946;2023-03-15T09:18:32;97777.72;;;8.82;100.00
49311;BME280;35177;45.900;5.946;2023-03-15T09:20:58;97774.47;;;9.13;100.00
49311;BME280;35177;45.900;5.946;2023-03-15T09:23:23;97775.03;;;9.90;100.00
49311;BME280;35177;45.900;5.946;2023-03-15T09:25:49;97766.22;;;10.44;100.00
49311;BME280;35177;45.900;5.946;2023-03-15T09:28:14;97775.03;;;10.60;100.00
49311;BME280;35177;45.900;5.946;2023-03-15T09:30:40;97772.22;;;10.74;100.00
49311;BME280;35177;45.900;5.946;2023-03-15T09:33:06;97776.50;;;11.62;100.00
49311;BME280;35177;45.900;5.946;2023-03-15T09:35:32;97781.44;;;11.20;100.00
49311;BME280;35177;45.900;5.946;2023-03-15T09:37:58;97777.97;;;11.37;100.00
49311;BME280;35177;45.900;5.946;2023-03-15T09:40:32;97773.41;;;12.35;100.00
49311;BME280;35177;45.900;5.946;2023-03-15T09:50:53;97760.91;;;13.43;89.20
49311;BME280;35177;45.900;5.946;2023-03-15T09:53:29;97758.16;;;13.91;100.00
49311;BME280;35177;45.900;5.946;2023-03-15T09:55:58;97757.34;;;14.29;99.32
49311;BME280;35177;45.900;5.946;2023-03-15T09:58:27;97761.00;;;14.51;80.59
49311;BME280;35177;45.900;5.946;2023-03-15T10:01:06;97761.97;;;14.55;80.72
49311;BME280;35177;45.900;5.946;2023-03-15T10:03:50;97763.06;;;14.92;75.81
49311;BME280;35177;45.900;5.946;2023-03-15T10:06:18;97765.63;;;14.76;66.63
49311;BME280;35177;45.900;5.946;2023-03-15T10:08:45;97754.25;;;14.82;61.74
49311;BME280;35177;45.900;5.946;2023-03-15T10:16:46;97756.75;;;13.67;68.93
49311;BME280;35177;45.900;5.946;2023-03-15T10:27:22;97751.03;;;15.68;48.98
49311;BME280;35177;45.900;5.946;2023-03-15T10:29:52;97743.44;;;15.01;45.96
49311;BME280;35177;45.900;5.946;2023-03-15T10:32:22;97738.84;;;15.18;49.26
49311;BME280;35177;45.900;5.946;2023-03-15T10:34:55;97747.06;;;15.69;47.28
49311;BME280;35177;45.900;5.946;2023-03-15T10:37:24;97739.75;;;14.88;53.33
49311;BME280;35177;45.900;5.946;2023-03-15T10:39:54;97740.56;;;14.89;45.93
49311;BME280;35177;45.900;5.946;2023-03-15T10:42:29;97736.97;;;14.88;49.26
49311;BME280;35177;45.900;5.946;2023-03-15T10:44:56;97741.66;;;14.75;55.94
49311;BME280;35177;45.900;5.946;2023-03-15T10:47:23;97736.31;;;14.61;54.94
49311;BME280;35177;45.900;5.946;2023-03-15T10:49:49;97732.28;;;13.81;54.58
49311;BME280;35177;45.900;5.946;2023-03-15T10:52:39;97735.78;;;11.35;58.22
49311;BME280;35177;45.900;5.946;2023-03-15T10:55:13;97732.75;;;12.08;69.33
49311;BME280;35177;45.900;5.946;2023-03-15T10:57:39;97732.03;;;12.78;64.06
49311;BME280;35177;45.900;5.946;2023-03-15T11:02:53;97716.19;;;14.47;53.51
49311;BME280;35177;45.900;5.946;2023-03-15T11:05:29;97711.25;;;14.95;51.69
49311;BME280;35177;45.900;5.946;2023-03-15T11:07:58;97710.03;;;15.05;52.12
49311;BME280;35177;45.900;5.946;2023-03-15T11:10:27;97710.63;;;15.44;52.78
49311;BME280;35177;45.900;5.946;2023-03-15T11:15:38;97714.16;;;14.56;42.80
49311;BME280;35177;45.900;5.946;2023-03-15T11:18:04;97710.78;;;14.72;42.54
49311;BME280;35177;45.900;5.946;2023-03-15T11:20:33;97707.38;;;14.57;42.47
49311;BME280;35177;45.900;5.946;2023-03-15T11:23:13;97719.19;;;14.63;44.88
49311;BME280;35177;45.900;5.946;2023-03-15T11:25:39;97707.91;;;14.29;49.72
49311;BME280;35177;45.900;5.946;2023-03-15T11:28:04;97713.59;;;14.63;47.98
49311;BME280;35177;45.900;5.946;2023-03-15T11:30:30;97709.97;;;14.41;44.67
49311;BME280;35177;45.900;5.946;2023-03-15T11:33:04;97706.00;;;14.42;46.36
49311;BME280;35177;45.900;5.946;2023-03-15T11:35:38;97707.72;;;14.35;52.89
49311;BME280;35177;45.900;5.946;2023-03-15T11:38:22;97705.50;;;14.49;50.30
49311;BME280;35177;45.900;5.946;2023-03-15T11:40:53;97696.56;;;14.56;51.18
49311;BME280;35177;45.900;5.946;2023-03-15T11:44:21;97696.34;;;13.71;49.07
49311;BME280;35177;45.900;5.946;2023-03-15T11:51:22;97676.28;;;14.17;44.58
49311;BME280;35177;45.900;5.946;2023-03-15T11:54:10;97680.81;;;13.61;50.45
49311;BME280;35177;45.900;5.946;2023-03-15T11:56:47;97675.03;;;13.66;41.66
49311;BME280;35177;45.900;5.946;2023-03-15T11:59:24;97684.31;;;13.41;44.85
49311;BME280;35177;45.900;5.946;2023-03-15T12:06:50;97669.59;;;13.05;39.70
49311;BME280;35177;45.900;5.946;2023-03-15T12:12:03;97663.81;;;13.28;44.97
49311;BME280;35177;45.900;5.946;2023-03-15T12:14:33;97668.13;;;12.99;44.85
49311;BME280;35177;45.900;5.946;2023-03-15T12:20:17;97658.50;;;13.61;50.04
49311;BME280;35177;45.900;5.946;2023-03-15T12:25:51;97662.53;;;13.73;45.57
49311;BME280;35177;45.900;5.946;2023-03-15T12:28:25;97657.41;;;13.84;44.12
49311;BME280;35177;45.900;5.946;2023-03-15T12:30:58;97649.59;;;13.21;44.35
49311;BME280;35177;45.900;5.946;2023-03-15T12:33:27;97648.34;;;13.57;44.43
49311;BME280;35177;45.900;5.946;2023-03-15T12:36:03;97657.19;;;13.59;43.83
49311;BME280;35177;45.900;5.946;2023-03-15T12:38:37;97650.88;;;13.23;43.12
49311;BME280;35177;45.900;5.946;2023-03-15T12:47:05;97639.13;;;13.65;44.42
49311;BME280;35177;45.900;5.946;2023-03-15T12:49:36;97627.75;;;13.31;37.93
49311;BME280;35177;45.900;5.946;2023-03-15T12:54:49;97628.13;;;13.12;40.60
49311;BME280;35177;45.900;5.946;2023-03-15T12:57:38;97624.69;;;13.15;40.59
49311;BME280;35177;45.900;5.946;2023-03-15T13:00:11;97631.41;;;13.14;37.39
49311;BME280;35177;45.900;5.946;2023-03-15T13:03:03;97621.28;;;13.01;36.38
49311;BME280;35177;45.900;5.946;2023-03-15T13:18:46;97628.34;;;12.63;42.52
49311;BME280;35177;45.900;5.946;2023-03-15T13:21:27;97617.91;;;12.51;38.87
49311;BME280;35177;45.900;5.946;2023-03-15T13:23:57;97608.03;;;12.80;41.01
49311;BME280;35177;45.900;5.946;2023-03-15T13:26:38;97604.94;;;12.64;36.47
49311;BME280;35177;45.900;5.946;2023-03-15T13:29:16;97612.50;;;12.46;40.69
49311;BME280;35177;45.900;5.946;2023-03-15T13:31:44;97614.28;;;12.42;39.88
49311;BME280;35177;45.900;5.946;2023-03-15T13:34:18;97618.69;;;12.52;41.22
49311;BME280;35177;45.900;5.946;2023-03-15T13:36:52;97622.63;;;12.42;42.10
49311;BME280;35177;45.900;5.946;2023-03-15T13:39:23;97610.03;;;12.18;36.99
49311;BME280;35177;45.900;5.946;2023-03-15T13:41:59;97613.59;;;12.10;42.38
49311;BME280;35177;45.900;5.946;2023-03-15T13:44:25;97609.00;;;11.97;40.87
49311;BME280;35177;45.900;5.946;2023-03-15T13:46:53;97606.34;;;11.92;37.63
49311;BME280;35177;45.900;5.946;2023-03-15T13:49:19;97605.75;;;12.21;40.46
49311;BME280;35177;45.900;5.946;2023-03-15T13:52:04;97600.69;;;12.32;39.03
49311;BME280;35177;45.900;5.946;2023-03-15T13:54:36;97600.69;;;12.14;41.51
49311;BME280;35177;45.900;5.946;2023-03-15T13:57:10;97604.06;;;11.94;41.53
49311;BME280;35177;45.900;5.946;2023-03-15T14:02:50;97607.94;;;11.66;36.34
49311;BME280;35177;45.900;5.946;2023-03-15T14:05:23;97619.19;;;11.70;36.86
49311;BME280;35177;45.900;5.946;2023-03-15T14:08:03;97607.44;;;11.73;39.08
49311;BME280;35177;45.900;5.946;2023-03-15T14:10:39;97606.16;;;11.79;39.70
49311;BME280;35177;45.900;5.946;2023-03-15T14:13:48;97608.06;;;11.61;40.50
49311;BME280;35177;45.900;5.946;2023-03-15T14:16:16;97609.69;;;11.62;39.26
49311;BME280;35177;45.900;5.946;2023-03-15T14:18:42;97609.34;;;11.55;40.27
49311;BME280;35177;45.900;5.946;2023-03-15T14:21:20;97607.75;;;11.63;36.74